createdAt,value
2023-01-22T00:01:42.135Z,85.77
2023-01-22T00:03:46.607Z,85.71
2023-01-22T00:05:50.155Z,85.64
2023-01-22T00:07:51.609Z,85.22
2023-01-22T00:09:53.002Z,85.37
2023-01-22T00:11:54.439Z,86.07
2023-01-22T00:13:55.838Z,85.10
2023-01-22T00:15:58.773Z,85.78
2023-01-22T00:18:00.157Z,85.13
2023-01-22T00:20:01.620Z,85.98
2023-01-22T00:22:03.059Z,85.06
2023-01-22T00:24:04.594Z,85.33
2023-01-22T00:26:15.362Z,84.90
2023-01-22T00:28:16.894Z,83.98
2023-01-22T00:30:18.751Z,84.90
2023-01-22T00:32:20.421Z,84.20
2023-01-22T00:34:21.857Z,84.29
2023-01-22T00:36:23.276Z,84.26
2023-01-22T00:38:24.692Z,84.48
2023-01-22T00:40:26.323Z,84.25
2023-01-22T00:42:27.871Z,84.85
2023-01-22T00:44:29.263Z,84.55
2023-01-22T00:46:30.662Z,85.17
2023-01-22T00:48:32.127Z,84.68
2023-01-22T00:50:33.526Z,84.36
2023-01-22T00:52:34.991Z,84.13
2023-01-22T00:54:36.468Z,84.57
2023-01-22T00:56:37.925Z,85.15
2023-01-22T00:58:39.490Z,84.92
2023-01-22T01:00:40.881Z,85.22
2023-01-22T01:03:00.956Z,85.40
2023-01-22T01:05:02.383Z,86.09
2023-01-22T01:07:04.142Z,85.96
2023-01-22T01:09:05.917Z,85.38
2023-01-22T01:11:11.073Z,85.84
2023-01-22T01:13:12.488Z,86.00
2023-01-22T01:15:13.879Z,85.78
2023-01-22T01:17:15.317Z,86.64
2023-01-22T01:19:17.424Z,86.67
2023-01-22T01:21:19.360Z,86.19
2023-01-22T01:23:20.871Z,86.14
2023-01-22T01:25:22.350Z,86.33
2023-01-22T01:27:23.844Z,86.85
2023-01-22T01:29:25.204Z,86.62
2023-01-22T01:31:26.799Z,86.99
2023-01-22T01:33:28.263Z,86.73
2023-01-22T01:37:55.353Z,87.30
2023-01-22T01:39:56.760Z,87.34
2023-01-22T01:41:58.158Z,87.33
2023-01-22T01:44:14.511Z,87.41
2023-01-22T01:46:25.318Z,87.34
2023-01-22T01:48:31.527Z,87.29
2023-01-22T01:50:33.640Z,87.85
2023-01-22T01:52:35.574Z,87.47
2023-01-22T01:54:38.972Z,88.36
2023-01-22T01:56:47.419Z,88.16
2023-01-22T01:58:53.522Z,88.18
2023-01-22T02:01:01.075Z,88.36
2023-01-22T02:05:32.258Z,88.19
2023-01-22T02:07:33.670Z,88.53
2023-01-22T02:09:35.202Z,87.84
2023-01-22T02:14:06.793Z,88.74
2023-01-22T02:16:10.253Z,88.40
2023-01-22T02:18:11.764Z,88.51
2023-01-22T02:20:13.320Z,88.04
2023-01-22T02:22:20.396Z,88.08
2023-01-22T02:24:21.774Z,87.86
2023-01-22T02:26:23.403Z,88.23
2023-01-22T02:28:24.823Z,87.78
2023-01-22T02:30:26.391Z,87.86
2023-01-22T02:32:28.850Z,86.90
2023-01-22T02:34:30.263Z,87.21
2023-01-22T02:36:34.156Z,87.65
2023-01-22T02:38:35.535Z,87.84
2023-01-22T02:40:48.927Z,87.69
2023-01-22T02:42:50.344Z,88.09
2023-01-22T02:44:52.952Z,87.12
2023-01-22T02:46:54.341Z,87.74
2023-01-22T02:48:55.747Z,87.73
2023-01-22T02:50:57.302Z,87.64
2023-01-22T02:52:58.754Z,87.73
2023-01-22T02:55:00.172Z,87.72
2023-01-22T02:57:01.615Z,87.80
2023-01-22T02:59:04.284Z,87.96
2023-01-22T03:01:20.636Z,88.39
2023-01-22T03:03:22.197Z,88.10
2023-01-22T03:05:25.285Z,88.06
2023-01-22T03:07:34.355Z,88.32
2023-01-22T03:09:35.736Z,88.38
2023-01-22T03:11:38.787Z,88.35
2023-01-22T03:13:58.914Z,88.75
2023-01-22T03:16:22.435Z,88.77
2023-01-22T03:18:42.570Z,88.71
2023-01-22T03:21:02.382Z,88.88
2023-01-22T03:23:03.783Z,89.10
2023-01-22T03:25:05.534Z,89.00
2023-01-22T03:27:06.962Z,88.89
2023-01-22T03:29:08.434Z,89.00
2023-01-22T03:31:10.001Z,89.18
2023-01-22T03:33:11.450Z,89.47
2023-01-22T03:35:12.830Z,89.63
2023-01-22T03:37:14.461Z,89.77
2023-01-22T03:39:15.856Z,89.49
2023-01-22T03:41:17.893Z,89.30
2023-01-22T03:43:19.282Z,89.15
2023-01-22T03:45:20.666Z,89.68
2023-01-22T03:47:22.083Z,90.20
2023-01-22T03:49:23.630Z,90.35
2023-01-22T03:51:25.307Z,90.26
2023-01-22T03:53:27.975Z,90.14
2023-01-22T03:55:29.960Z,90.40
2023-01-22T03:57:31.341Z,90.44
2023-01-22T03:59:32.732Z,90.79
2023-01-22T04:01:34.434Z,90.64
2023-01-22T04:03:36.462Z,90.62
2023-01-22T04:05:37.831Z,90.46
2023-01-22T04:07:39.208Z,90.44
2023-01-22T04:09:40.564Z,89.73
2023-01-22T04:11:42.009Z,90.28
2023-01-22T04:13:44.894Z,90.37
2023-01-22T04:15:46.368Z,90.75
2023-01-22T04:17:47.750Z,90.38
2023-01-22T04:19:49.152Z,90.44
2023-01-22T04:21:50.628Z,90.53
2023-01-22T04:23:52.078Z,90.92
2023-01-22T04:25:53.631Z,90.77
2023-01-22T04:27:55.025Z,90.20
2023-01-22T04:29:56.394Z,90.63
2023-01-22T04:31:57.795Z,91.10
2023-01-22T04:33:59.198Z,91.28
2023-01-22T04:36:00.613Z,91.32
2023-01-22T04:38:02.562Z,91.09
2023-01-22T04:40:05.541Z,90.59
2023-01-22T04:42:06.937Z,90.13
2023-01-22T04:44:08.405Z,90.78
2023-01-22T04:46:09.937Z,90.83
2023-01-22T04:48:12.522Z,90.39
2023-01-22T04:50:26.950Z,90.93
2023-01-22T04:52:28.339Z,91.22
2023-01-22T04:54:29.710Z,91.10
2023-01-22T04:56:31.232Z,91.28
2023-01-22T04:58:32.964Z,90.97
2023-01-22T05:00:34.737Z,91.39
2023-01-22T05:02:37.058Z,91.51
2023-01-22T05:04:40.991Z,91.50
2023-01-22T05:06:42.471Z,91.30
2023-01-22T05:08:43.833Z,91.06
2023-01-22T05:10:45.235Z,91.12
2023-01-22T05:12:46.620Z,91.36
2023-01-22T05:14:47.990Z,91.33
2023-01-22T05:16:49.447Z,91.24
2023-01-22T05:18:50.910Z,91.11
2023-01-22T05:20:52.298Z,90.76
2023-01-22T05:22:53.676Z,90.81
2023-01-22T05:24:55.294Z,91.32
2023-01-22T05:26:56.805Z,91.45
2023-01-22T05:28:58.142Z,91.88
2023-01-22T05:30:59.616Z,91.69
2023-01-22T05:33:01.074Z,92.19
2023-01-22T05:35:02.956Z,91.45
2023-01-22T05:37:04.386Z,91.43
2023-01-22T05:39:05.758Z,91.45
2023-01-22T05:41:07.195Z,91.90
2023-01-22T05:43:08.556Z,91.72
2023-01-22T05:45:10.426Z,91.90
2023-01-22T05:47:13.545Z,91.82
2023-01-22T05:49:14.914Z,91.52
2023-01-22T05:51:16.431Z,91.67
2023-01-22T05:53:17.825Z,91.82
2023-01-22T05:55:24.222Z,91.52
2023-01-22T05:57:26.979Z,91.33
2023-01-22T05:59:28.341Z,91.97
2023-01-22T06:01:29.815Z,91.66
2023-01-22T06:03:31.231Z,92.14
2023-01-22T06:05:32.730Z,92.48
2023-01-22T06:07:34.197Z,92.10
2023-01-22T06:09:35.577Z,91.83
2023-01-22T06:11:36.921Z,91.82
2023-01-22T06:13:39.239Z,91.98
2023-01-22T06:15:43.595Z,91.70
2023-01-22T06:17:44.993Z,92.33
2023-01-22T06:19:46.428Z,91.30
2023-01-22T06:21:47.849Z,92.08
2023-01-22T06:23:52.695Z,91.88
2023-01-22T06:25:55.441Z,91.93
2023-01-22T06:27:56.808Z,91.88
2023-01-22T06:29:58.435Z,91.90
2023-01-22T06:31:59.848Z,91.95
2023-01-22T06:34:01.236Z,91.56
2023-01-22T06:36:03.521Z,91.79
2023-01-22T06:38:05.155Z,91.80
2023-01-22T06:40:07.175Z,92.04
2023-01-22T06:42:08.534Z,92.43
2023-01-22T06:44:09.920Z,92.10
2023-01-22T06:46:11.339Z,91.86
2023-01-22T06:48:12.997Z,91.58
2023-01-22T06:50:14.424Z,91.50
2023-01-22T06:52:15.781Z,91.31
2023-01-22T06:54:17.235Z,91.92
2023-01-22T06:56:18.581Z,91.68
2023-01-22T06:58:19.965Z,91.99
2023-01-22T07:00:21.750Z,91.54
2023-01-22T07:02:24.230Z,91.94
2023-01-22T07:04:25.678Z,91.91
2023-01-22T07:06:27.059Z,91.18
2023-01-22T07:08:30.876Z,91.93
2023-01-22T07:10:32.249Z,91.82
2023-01-22T07:12:33.675Z,91.04
2023-01-22T07:14:37.430Z,91.97
2023-01-22T07:16:39.134Z,91.41
2023-01-22T07:18:40.533Z,91.75
2023-01-22T07:20:42.424Z,91.20
2023-01-22T07:22:43.896Z,91.55
2023-01-22T07:24:45.265Z,92.04
2023-01-22T07:26:48.496Z,91.63
2023-01-22T07:28:49.941Z,91.97
2023-01-22T07:30:51.352Z,92.06
2023-01-22T07:32:52.729Z,91.81
2023-01-22T07:34:54.130Z,91.73
2023-01-22T07:36:55.532Z,92.07
2023-01-22T07:38:57.138Z,92.88
2023-01-22T07:41:16.990Z,91.93
2023-01-22T07:43:25.912Z,91.90
2023-01-22T07:45:27.331Z,92.07
2023-01-22T07:47:28.809Z,91.20
2023-01-22T07:49:30.195Z,91.86
2023-01-22T07:51:32.159Z,91.35
2023-01-22T07:53:34.385Z,91.64
2023-01-22T07:55:35.756Z,91.34
2023-01-22T07:57:37.536Z,91.49
2023-01-22T07:59:38.913Z,91.29
2023-01-22T08:01:40.350Z,91.03
2023-01-22T08:03:41.717Z,91.06
2023-01-22T08:05:43.583Z,91.44
2023-01-22T08:07:44.959Z,91.05
2023-01-22T08:09:46.385Z,91.56
2023-01-22T08:11:47.738Z,91.82
2023-01-22T08:13:49.162Z,91.39
2023-01-22T08:15:50.560Z,91.54
2023-01-22T08:17:51.992Z,91.17
2023-01-22T08:19:53.420Z,91.18
2023-01-22T08:21:55.772Z,91.35
2023-01-22T08:23:57.177Z,91.46
2023-01-22T08:26:00.594Z,91.26
2023-01-22T08:28:04.958Z,91.49
2023-01-22T08:30:07.916Z,90.91
2023-01-22T08:32:09.508Z,91.18
2023-01-22T08:34:11.078Z,90.85
2023-01-22T08:36:12.438Z,91.16
2023-01-22T08:38:13.877Z,91.21
2023-01-22T08:40:15.945Z,91.03
2023-01-22T08:42:17.423Z,91.19
2023-01-22T08:44:18.796Z,91.25
2023-01-22T08:46:20.179Z,91.44
2023-01-22T08:48:21.561Z,91.29
2023-01-22T08:50:22.935Z,91.10
2023-01-22T08:52:24.322Z,90.96
2023-01-22T08:54:26.239Z,90.96
2023-01-22T08:56:27.597Z,90.32
2023-01-22T08:58:28.968Z,90.38
2023-01-22T09:00:30.598Z,90.52
2023-01-22T09:02:32.351Z,90.81
2023-01-22T09:04:33.799Z,90.77
2023-01-22T09:06:36.621Z,90.43
2023-01-22T09:08:38.224Z,90.50
2023-01-22T09:10:39.977Z,90.16
2023-01-22T09:12:41.422Z,90.33
2023-01-22T09:14:42.789Z,90.90
2023-01-22T09:16:44.275Z,90.71
2023-01-22T09:18:45.777Z,89.68
2023-01-22T09:20:47.138Z,90.21
2023-01-22T09:22:49.179Z,90.13
2023-01-22T09:24:50.621Z,90.07
2023-01-22T09:26:52.007Z,90.05
2023-01-22T09:28:53.404Z,89.95
2023-01-22T09:30:54.846Z,90.11
2023-01-22T09:32:56.293Z,90.14
2023-01-22T09:34:57.692Z,89.94
2023-01-22T09:37:02.517Z,89.57
2023-01-22T09:39:03.903Z,89.08
2023-01-22T09:41:30.278Z,88.57
2023-01-22T09:43:37.146Z,88.57
2023-01-22T09:45:39.036Z,88.78
2023-01-22T09:47:50.003Z,89.04
2023-01-22T09:50:01.262Z,89.13
2023-01-22T09:52:05.410Z,88.65
2023-01-22T09:54:08.883Z,88.97
2023-01-22T09:56:41.493Z,89.25
2023-01-22T09:58:43.185Z,89.10
2023-01-22T10:00:51.247Z,88.91
2023-01-22T10:02:58.698Z,89.27
2023-01-22T10:05:05.168Z,89.18
2023-01-22T10:07:14.552Z,88.90
2023-01-22T10:09:19.247Z,88.72
2023-01-22T10:11:20.706Z,88.80
2023-01-22T10:13:29.855Z,88.86
2023-01-22T10:15:31.310Z,88.71
2023-01-22T10:17:35.854Z,89.01
2023-01-22T10:19:44.831Z,89.07
2023-01-22T10:21:50.430Z,89.05
2023-01-22T10:23:52.336Z,88.65
2023-01-22T10:26:00.828Z,88.86
2023-01-22T10:28:04.139Z,88.85
2023-01-22T10:30:14.442Z,88.71
2023-01-22T10:32:22.691Z,88.37
2023-01-22T10:34:30.836Z,88.19
2023-01-22T10:36:32.321Z,88.52
2023-01-22T10:38:33.737Z,88.79
2023-01-22T10:40:38.209Z,88.86
2023-01-22T10:42:39.621Z,89.21
2023-01-22T10:44:41.048Z,88.42
2023-01-22T10:46:42.529Z,88.41
2023-01-22T10:48:43.947Z,87.96
2023-01-22T10:50:46.555Z,87.67
2023-01-22T10:52:54.694Z,87.28
2023-01-22T10:54:59.188Z,87.00
2023-01-22T10:57:28.015Z,87.50
2023-01-22T10:59:30.620Z,87.41
2023-01-22T11:01:35.824Z,87.61
2023-01-22T11:03:39.136Z,88.27
2023-01-22T11:05:46.413Z,89.00
2023-01-22T11:07:49.793Z,88.80
2023-01-22T11:09:51.139Z,88.62
2023-01-22T11:11:59.813Z,88.44
2023-01-22T11:14:18.687Z,88.55
2023-01-22T11:16:22.565Z,88.69
2023-01-22T11:18:40.435Z,88.10
2023-01-22T11:20:53.035Z,88.73
2023-01-22T11:23:03.702Z,89.04
2023-01-22T11:25:09.473Z,88.67
2023-01-22T11:27:14.351Z,88.83
2023-01-22T11:29:18.823Z,88.98
2023-01-22T11:31:32.032Z,89.10
2023-01-22T11:34:05.894Z,88.87
2023-01-22T11:36:22.493Z,88.73
2023-01-22T11:38:47.704Z,88.38
2023-01-22T11:41:00.930Z,88.77
2023-01-22T11:43:21.032Z,88.20
2023-01-22T11:45:47.691Z,88.30
2023-01-22T11:48:10.027Z,88.45
2023-01-22T11:50:28.084Z,88.66
2023-01-22T11:52:47.765Z,88.62
2023-01-22T11:54:52.041Z,88.74
2023-01-22T11:57:20.153Z,89.03
2023-01-22T11:59:51.122Z,89.04
2023-01-22T12:01:58.192Z,88.64
2023-01-22T12:03:59.583Z,88.93
2023-01-22T12:06:13.021Z,88.80
2023-01-22T12:08:31.224Z,89.08
2023-01-22T12:10:32.624Z,89.03
2023-01-22T12:12:57.224Z,88.62
2023-01-22T12:15:35.111Z,88.98
2023-01-22T12:17:55.162Z,88.86
2023-01-22T12:20:45.027Z,89.12
2023-01-22T12:23:01.101Z,88.83
2023-01-22T12:25:19.591Z,89.48
2023-01-22T12:27:29.123Z,88.96
2023-01-22T12:29:46.847Z,88.73
2023-01-22T12:31:59.121Z,88.83
2023-01-22T12:34:09.461Z,88.66
2023-01-22T12:36:16.429Z,89.08
2023-01-22T12:38:17.867Z,89.47
2023-01-22T12:40:26.493Z,89.32
2023-01-22T12:42:35.958Z,89.40
2023-01-22T12:44:48.737Z,89.16
2023-01-22T12:47:07.943Z,89.00
2023-01-22T12:49:11.859Z,89.17
2023-01-22T12:51:34.301Z,89.07
2023-01-22T12:53:35.771Z,89.11
2023-01-22T12:55:43.962Z,89.07
2023-01-22T12:57:45.628Z,88.76
2023-01-22T12:59:56.500Z,89.41
2023-01-22T13:02:03.662Z,89.39
2023-01-22T13:04:06.991Z,89.22
2023-01-22T13:06:20.194Z,88.95
2023-01-22T13:08:27.820Z,88.98
2023-01-22T13:10:35.344Z,88.74
2023-01-22T13:12:45.363Z,89.02
2023-01-22T13:14:49.404Z,89.19
2023-01-22T13:16:57.186Z,88.77
2023-01-22T13:19:00.811Z,88.85
2023-01-22T13:21:08.581Z,88.33
2023-01-22T13:23:13.701Z,89.22
2023-01-22T13:25:30.100Z,89.36
2023-01-22T13:27:37.013Z,89.20
2023-01-22T13:29:42.755Z,89.00
2023-01-22T13:32:02.215Z,88.96
2023-01-22T13:34:10.409Z,89.15
2023-01-22T13:36:15.201Z,89.35
2023-01-22T13:38:26.453Z,89.63
2023-01-22T13:40:31.547Z,89.49
2023-01-22T13:42:44.414Z,89.41
2023-01-22T13:44:51.242Z,89.60
2023-01-22T13:46:53.208Z,89.94
2023-01-22T13:49:04.005Z,89.82
2023-01-22T13:51:07.489Z,89.67
2023-01-22T13:53:18.627Z,89.89
2023-01-22T13:55:22.933Z,89.60
2023-01-22T13:57:24.536Z,89.62
2023-01-22T13:59:37.369Z,89.82
2023-01-22T14:01:38.852Z,89.38
2023-01-22T14:03:42.446Z,89.67
2023-01-22T14:05:43.866Z,89.64
2023-01-22T14:07:45.369Z,89.86
2023-01-22T14:09:46.734Z,89.70
2023-01-22T14:11:50.070Z,90.53
2023-01-22T14:13:53.393Z,90.13
2023-01-22T14:15:59.335Z,89.96
2023-01-22T14:18:13.385Z,89.70
2023-01-22T14:20:15.220Z,89.83
2023-01-22T14:22:17.059Z,89.96
2023-01-22T14:24:18.445Z,89.62
2023-01-22T14:26:20.937Z,89.77
2023-01-22T14:28:23.957Z,89.66
2023-01-22T14:30:25.831Z,89.84
2023-01-22T14:32:27.474Z,89.26
2023-01-22T14:34:28.839Z,89.82
2023-01-22T14:36:30.843Z,89.79
2023-01-22T14:38:32.674Z,89.68
2023-01-22T14:40:34.577Z,89.76
2023-01-22T14:42:36.023Z,89.45
2023-01-22T14:44:37.485Z,89.73
2023-01-22T14:46:39.063Z,89.95
2023-01-22T14:48:40.583Z,90.33
2023-01-22T14:50:42.224Z,90.13
2023-01-22T14:52:44.089Z,90.31
2023-01-22T14:54:45.667Z,90.41
2023-01-22T14:56:47.370Z,90.33
2023-01-22T14:58:49.706Z,89.78
2023-01-22T15:00:51.095Z,89.91
2023-01-22T15:02:57.155Z,89.81
2023-01-22T15:04:58.531Z,89.85
2023-01-22T15:06:59.937Z,90.07
2023-01-22T15:09:01.921Z,89.87
2023-01-22T15:11:05.626Z,90.40
2023-01-22T15:13:07.821Z,90.20
2023-01-22T15:15:09.759Z,90.59
2023-01-22T15:17:11.197Z,90.61
2023-01-22T15:19:12.911Z,90.62
2023-01-22T15:21:14.886Z,90.04
2023-01-22T15:23:16.533Z,90.73
2023-01-22T15:25:18.315Z,90.15
2023-01-22T15:27:20.256Z,90.38
2023-01-22T15:29:21.625Z,90.45
2023-01-22T15:31:23.212Z,90.33
2023-01-22T15:33:24.811Z,90.38
2023-01-22T15:35:28.331Z,90.52
2023-01-22T15:37:29.705Z,90.29
2023-01-22T15:39:31.254Z,90.19
2023-01-22T15:41:35.128Z,90.41
2023-01-22T15:43:36.562Z,90.54
2023-01-22T15:45:38.035Z,90.56
2023-01-22T15:47:39.433Z,90.57
2023-01-22T15:49:40.958Z,90.69
2023-01-22T15:51:42.446Z,90.87
2023-01-22T15:53:52.138Z,90.61
2023-01-22T15:55:53.624Z,91.14
2023-01-22T15:57:55.125Z,91.25
2023-01-22T15:59:56.482Z,90.63
2023-01-22T16:01:57.835Z,90.58
2023-01-22T16:04:00.941Z,91.37
2023-01-22T16:06:13.866Z,91.71
2023-01-22T16:08:15.292Z,91.70
2023-01-22T16:10:16.985Z,91.39
2023-01-22T16:12:18.564Z,91.35
2023-01-22T16:14:19.996Z,91.61
2023-01-22T16:16:28.016Z,91.24
2023-01-22T16:18:31.983Z,91.54
2023-01-22T16:20:33.444Z,91.00
2023-01-22T16:22:34.849Z,91.11
2023-01-22T16:24:36.279Z,91.38
2023-01-22T16:26:37.717Z,90.96
2023-01-22T16:28:40.373Z,91.38
2023-01-22T16:30:42.947Z,90.61
2023-01-22T16:32:46.024Z,91.27
2023-01-22T16:34:47.485Z,91.00
2023-01-22T16:36:49.318Z,91.15
2023-01-22T16:38:51.017Z,91.48
2023-01-22T16:40:52.994Z,91.48
2023-01-22T16:42:59.393Z,91.77
2023-01-22T16:45:00.805Z,91.70
2023-01-22T16:47:02.266Z,91.58
2023-01-22T16:49:16.542Z,91.74
2023-01-22T16:51:20.610Z,91.98
2023-01-22T16:53:22.058Z,91.78
2023-01-22T16:55:23.862Z,91.95
2023-01-22T16:57:25.346Z,91.73
2023-01-22T16:59:27.564Z,92.25
2023-01-22T17:01:30.112Z,91.74
2023-01-22T17:03:31.517Z,91.50
2023-01-22T17:05:32.923Z,91.88
2023-01-22T17:07:34.530Z,91.62
2023-01-22T17:09:36.274Z,91.56
2023-01-22T17:11:37.882Z,92.08
2023-01-22T17:13:39.238Z,91.34
2023-01-22T17:15:41.987Z,91.23
2023-01-22T17:17:43.511Z,91.58
2023-01-22T17:19:44.895Z,91.88
2023-01-22T17:21:49.142Z,91.83
2023-01-22T17:23:50.538Z,91.69
2023-01-22T17:25:52.039Z,91.61
2023-01-22T17:27:53.562Z,91.89
2023-01-22T17:29:54.929Z,91.51
2023-01-22T17:31:57.167Z,92.44
2023-01-22T17:33:59.012Z,92.02
2023-01-22T17:36:00.985Z,92.01
2023-01-22T17:38:02.521Z,92.06
2023-01-22T17:40:04.693Z,92.31
2023-01-22T17:42:06.249Z,92.38
2023-01-22T17:44:07.835Z,92.26
2023-01-22T17:46:13.493Z,92.06
2023-01-22T17:48:14.889Z,91.85
2023-01-22T17:50:16.762Z,91.92
2023-01-22T17:52:20.241Z,92.08
2023-01-22T17:54:22.078Z,91.86
2023-01-22T17:56:26.947Z,92.19
2023-01-22T17:58:28.357Z,92.13
2023-01-22T18:00:31.443Z,92.29
2023-01-22T18:02:32.897Z,92.04
2023-01-22T18:04:36.288Z,92.19
2023-01-22T18:06:39.014Z,92.54
2023-01-22T18:08:42.214Z,92.16
2023-01-22T18:10:43.675Z,92.43
2023-01-22T18:12:45.181Z,92.10
2023-01-22T18:14:46.589Z,91.87
2023-01-22T18:16:49.547Z,91.74
2023-01-22T18:18:52.322Z,91.65
2023-01-22T18:20:53.991Z,92.16
2023-01-22T18:22:55.433Z,91.99
2023-01-22T18:24:58.997Z,91.87
2023-01-22T18:27:00.768Z,92.02
2023-01-22T18:29:02.527Z,92.33
2023-01-22T18:31:06.600Z,92.05
2023-01-22T18:33:10.060Z,92.10
2023-01-22T18:35:11.699Z,92.60
2023-01-22T18:37:13.234Z,91.88
2023-01-22T18:39:17.794Z,92.15
2023-01-22T18:41:24.014Z,92.17
2023-01-22T18:43:25.497Z,92.19
2023-01-22T18:45:26.964Z,92.01
2023-01-22T18:47:28.354Z,92.11
2023-01-22T18:49:29.795Z,92.16
2023-01-22T18:51:32.703Z,92.45
2023-01-22T18:53:35.447Z,92.25
2023-01-22T18:55:36.883Z,92.26
2023-01-22T18:57:42.082Z,92.23
2023-01-22T18:59:43.656Z,92.21
2023-01-22T19:01:51.173Z,92.30
2023-01-22T19:04:04.643Z,92.38
2023-01-22T19:06:13.969Z,92.10
2023-01-22T19:08:15.434Z,92.33
2023-01-22T19:10:16.914Z,92.25
2023-01-22T19:12:19.100Z,92.32
2023-01-22T19:14:21.538Z,91.84
2023-01-22T19:16:24.315Z,91.71
2023-01-22T19:18:25.681Z,91.46
2023-01-22T19:25:19.560Z,92.38
2023-01-22T19:29:47.907Z,91.60
2023-01-22T19:31:53.763Z,92.05
2023-01-22T19:33:56.468Z,92.00
2023-01-22T19:35:57.867Z,92.09
2023-01-22T19:37:59.256Z,91.95
2023-01-22T19:40:00.687Z,91.77
2023-01-22T19:42:05.078Z,91.90
2023-01-22T19:44:09.005Z,92.07
2023-01-22T19:46:13.297Z,91.84
2023-01-22T19:48:14.706Z,91.72
2023-01-22T19:50:16.274Z,91.75
2023-01-22T19:52:18.346Z,91.99
2023-01-22T19:54:19.722Z,91.89
2023-01-22T19:56:29.271Z,92.13
2023-01-22T19:58:30.675Z,92.17
2023-01-22T20:00:32.330Z,92.51
2023-01-22T20:02:33.845Z,91.94
2023-01-22T20:04:35.666Z,92.16
2023-01-22T20:06:37.080Z,92.15
2023-01-22T20:08:41.362Z,92.31
2023-01-22T20:10:43.284Z,92.37
2023-01-22T20:12:45.370Z,92.17
2023-01-22T20:14:46.858Z,92.49
2023-01-22T20:16:48.759Z,92.43
2023-01-22T20:18:51.564Z,92.17
2023-01-22T20:20:54.094Z,92.10
2023-01-22T20:22:55.466Z,92.66
2023-01-22T20:24:56.834Z,92.41
2023-01-22T20:26:58.910Z,92.20
2023-01-22T20:29:00.374Z,92.48
2023-01-22T20:31:04.615Z,92.56
2023-01-22T20:33:06.069Z,92.61
2023-01-22T20:35:08.268Z,92.51
2023-01-22T20:37:09.645Z,92.50
2023-01-22T20:39:11.270Z,92.53
2023-01-22T20:41:13.612Z,92.29
2023-01-22T20:43:17.073Z,92.78
2023-01-22T20:45:18.858Z,92.20
2023-01-22T20:47:20.393Z,92.32
2023-01-22T20:49:21.971Z,92.78
2023-01-22T20:51:26.465Z,92.71
2023-01-22T20:53:28.805Z,92.68
2023-01-22T20:55:30.668Z,92.52
2023-01-22T20:57:32.440Z,92.58
2023-01-22T20:59:33.840Z,92.56
2023-01-22T21:01:35.788Z,92.52
2023-01-22T21:03:37.184Z,92.61
2023-01-22T21:05:40.803Z,92.12
2023-01-22T21:07:42.359Z,92.51
2023-01-22T21:09:44.107Z,92.71
2023-01-22T21:11:45.564Z,93.15
2023-01-22T21:13:48.688Z,92.63
2023-01-22T21:15:51.276Z,92.67
2023-01-22T21:17:54.585Z,92.37
2023-01-22T21:19:55.970Z,92.80
2023-01-22T21:22:00.291Z,92.32
2023-01-22T21:24:02.129Z,92.33
2023-01-22T21:26:05.279Z,92.48
2023-01-22T21:28:06.820Z,92.03
2023-01-22T21:30:08.844Z,92.25
2023-01-22T21:32:10.321Z,91.99
2023-01-22T21:34:11.795Z,92.91
2023-01-22T21:36:13.580Z,92.67
2023-01-22T21:38:14.997Z,92.29
2023-01-22T21:40:22.661Z,92.35
2023-01-22T21:42:42.694Z,92.57
2023-01-22T21:45:03.102Z,92.43
2023-01-22T21:47:05.077Z,92.49
2023-01-22T21:49:18.369Z,92.54
2023-01-22T21:51:20.093Z,92.23
2023-01-22T21:53:21.441Z,92.17
2023-01-22T21:55:23.494Z,92.40
2023-01-22T21:57:25.617Z,92.40
2023-01-22T21:59:27.086Z,91.97
2023-01-22T22:01:28.436Z,92.10
2023-01-22T22:03:32.641Z,92.16
2023-01-22T22:05:34.049Z,92.61
2023-01-22T22:07:35.408Z,92.34
2023-01-22T22:09:37.034Z,92.40
2023-01-22T22:11:38.521Z,92.31
2023-01-22T22:13:40.946Z,92.16
2023-01-22T22:15:42.466Z,92.40
2023-01-22T22:17:44.779Z,91.93
2023-01-22T22:19:46.161Z,91.99
2023-01-22T22:21:47.893Z,92.03
2023-01-22T22:23:49.927Z,91.98
2023-01-22T22:25:51.903Z,92.30
2023-01-22T22:27:54.982Z,92.38
2023-01-22T22:29:56.375Z,92.38
2023-01-22T22:31:57.771Z,92.66
2023-01-22T22:33:59.360Z,92.29
2023-01-22T22:36:01.900Z,92.40
2023-01-22T22:38:03.323Z,92.35
2023-01-22T22:40:05.191Z,92.05
2023-01-22T22:42:06.886Z,92.42
2023-01-22T22:44:10.181Z,92.42
2023-01-22T22:46:24.486Z,92.34
2023-01-22T22:48:25.919Z,92.02
2023-01-22T22:50:27.499Z,92.63
2023-01-22T22:52:28.903Z,92.40
2023-01-22T22:54:30.256Z,92.58
2023-01-22T22:56:31.944Z,92.19
2023-01-22T22:58:33.749Z,92.31
2023-01-22T23:00:35.116Z,92.20
2023-01-22T23:02:36.514Z,92.52
2023-01-22T23:04:38.029Z,92.10
2023-01-22T23:06:42.837Z,92.57
2023-01-22T23:08:47.585Z,92.65
2023-01-22T23:10:49.105Z,92.76
2023-01-22T23:12:50.483Z,93.07
2023-01-22T23:14:51.995Z,92.74
2023-01-22T23:16:53.472Z,92.64
2023-01-22T23:18:55.265Z,92.30
2023-01-22T23:20:59.862Z,92.66
2023-01-22T23:23:01.250Z,92.52
2023-01-22T23:25:02.643Z,92.61
2023-01-22T23:27:04.346Z,92.28
2023-01-22T23:29:08.251Z,92.43
2023-01-22T23:31:13.431Z,92.57
2023-01-22T23:33:15.195Z,92.59
2023-01-22T23:35:16.638Z,92.63
2023-01-22T23:37:18.183Z,92.48
2023-01-22T23:39:21.251Z,92.21
2023-01-22T23:41:23.390Z,92.25
2023-01-22T23:43:25.282Z,92.13
2023-01-22T23:45:27.047Z,92.29
2023-01-22T23:47:28.529Z,92.41
2023-01-22T23:49:29.904Z,92.23
2023-01-22T23:51:31.503Z,92.46
2023-01-22T23:53:47.172Z,92.38
2023-01-22T23:55:49.176Z,92.18
2023-01-22T23:57:50.549Z,91.84
2023-01-22T23:59:52.122Z,91.87
